Time;durP1;ratioP1;P1;durP2;ratioP2;P2;SDS_P1;SDS_P2;PMS_P1;PMS_P2;Temp;Humidity;BMP_temperature;BMP_pressure;BME280_temperature;BME280_humidity;BME280_pressure;Samples;Min_cycle;Max_cycle;Signal;HPM_P1;HPM_P2
2023/07/20 00:02:05;;;;;;;58.13;7.00;;;20.10;1.00;;;;;;5037089;28;20508;-74
2023/07/20 00:04:32;;;;;;;2.90;1.35;;;20.00;1.00;;;;;;5034971;28;20036;-74
2023/07/20 00:07:00;;;;;;;4.07;1.50;;;20.00;1.00;;;;;;5036377;28;20037;-75
2023/07/20 00:09:27;;;;;;;2.83;1.23;;;20.00;1.00;;;;;;5037869;28;20049;-74
2023/07/20 00:11:53;;;;;;;2.65;1.30;;;20.00;1.00;;;;;;5032622;28;20033;-74
2023/07/20 00:14:19;;;;;;;4.38;0.98;;;19.90;1.00;;;;;;5034177;28;20033;-73
2023/07/20 00:16:46;;;;;;;2.42;1.33;;;19.90;1.00;;;;;;5034433;28;20033;-78
2023/07/20 00:19:13;;;;;;;7.15;1.77;;;19.90;1.00;;;;;;5034916;28;20030;-73
2023/07/20 00:21:40;;;;;;;10.13;1.73;;;19.90;1.00;;;;;;5035578;28;20048;-74
2023/07/20 00:24:06;;;;;;;8.95;3.55;;;19.80;1.00;;;;;;5034714;28;20271;-74
2023/07/20 00:26:32;;;;;;;3.70;1.60;;;19.80;1.00;;;;;;5033827;28;20034;-73
2023/07/20 00:28:59;;;;;;;4.60;1.48;;;19.70;1.00;;;;;;5031254;28;20036;-74
2023/07/20 00:31:25;;;;;;;3.97;1.90;;;19.70;1.00;;;;;;5035334;28;20050;-73
2023/07/20 00:33:51;;;;;;;5.13;1.55;;;19.70;1.00;;;;;;5036112;28;20363;-75
2023/07/20 00:36:19;;;;;;;295.20;44.95;;;19.60;1.00;;;;;;5053409;28;20032;-74
2023/07/20 00:38:45;;;;;;;424.38;100.15;;;19.60;1.00;;;;;;5029161;28;20037;-79
2023/07/20 00:41:13;;;;;;;360.95;153.70;;;19.60;1.00;;;;;;5039326;28;20037;-74
2023/07/20 00:43:40;;;;;;;144.70;51.15;;;19.50;1.00;;;;;;5018253;28;20036;-78
2023/07/20 00:46:07;;;;;;;213.98;47.63;;;19.50;1.00;;;;;;5029311;28;20041;-74
2023/07/20 00:48:34;;;;;;;343.92;97.43;;;19.40;1.00;;;;;;5025900;28;20482;-79
2023/07/20 00:51:01;;;;;;;466.13;72.05;;;19.40;1.00;;;;;;5034483;28;20132;-75
2023/07/20 00:53:28;;;;;;;136.40;20.92;;;19.30;1.00;;;;;;5033534;28;20034;-74
2023/07/20 00:55:55;;;;;;;368.40;159.82;;;19.20;1.00;;;;;;5043984;28;20064;-74
2023/07/20 00:58:21;;;;;;;161.65;55.95;;;19.10;1.00;;;;;;5033574;28;20056;-77
2023/07/20 01:00:47;;;;;;;118.03;11.77;;;19.10;1.00;;;;;;5036562;28;20037;-78
2023/07/20 01:03:14;;;;;;;35.30;8.27;;;19.00;1.00;;;;;;5035139;28;20474;-74
2023/07/20 01:05:50;;;;;;;158.93;139.63;;;19.00;1.00;;;;;;5035927;28;20041;-74
2023/07/20 01:08:45;;;;;;;217.57;173.10;;;18.90;1.00;;;;;;5035598;28;20033;-74
2023/07/20 01:11:34;;;;;;;55.83;15.32;;;18.80;1.00;;;;;;5033178;28;20052;-73
2023/07/20 01:14:00;;;;;;;30.13;7.28;;;18.80;1.00;;;;;;5033680;28;20029;-74
2023/07/20 01:16:28;;;;;;;121.07;14.40;;;18.70;1.00;;;;;;5035095;28;20034;-73
2023/07/20 01:18:54;;;;;;;137.38;21.15;;;18.60;1.00;;;;;;5034521;28;20041;-73
2023/07/20 01:21:41;;;;;;;53.55;5.10;;;18.60;1.00;;;;;;5034922;28;20386;-74
2023/07/20 01:24:11;;;;;;;26.48;5.70;;;18.60;1.00;;;;;;5032101;28;20056;-73
2023/07/20 01:27:11;;;;;;;106.35;22.52;;;18.60;1.00;;;;;;5052292;28;20053;-74
2023/07/20 01:30:15;;;;;;;33.70;5.00;;;18.60;1.00;;;;;;5045672;28;20053;-74
2023/07/20 01:32:44;;;;;;;3.35;1.88;;;18.60;1.00;;;;;;5036255;28;20041;-74
2023/07/20 01:35:14;;;;;;;4.75;1.40;;;18.60;1.00;;;;;;5050015;28;20034;-73
2023/07/20 01:37:43;;;;;;;3.08;1.48;;;18.50;1.00;;;;;;5034128;28;20053;-74
2023/07/20 01:40:11;;;;;;;4.72;1.80;;;18.50;1.90;;;;;;5028125;28;20029;-74
2023/07/20 01:42:38;;;;;;;5.80;1.85;;;18.50;1.00;;;;;;5035637;28;20037;-74
2023/07/20 01:45:04;;;;;;;3.13;1.42;;;18.50;3.20;;;;;;5033349;28;20511;-74
2023/07/20 01:47:30;;;;;;;5.13;1.90;;;18.40;7.90;;;;;;5033600;28;20562;-74
2023/07/20 01:49:56;;;;;;;4.00;1.70;;;18.40;2.80;;;;;;5032084;28;20054;-74
2023/07/20 01:52:25;;;;;;;2.20;1.45;;;18.30;12.10;;;;;;5029260;28;20038;-74
2023/07/20 01:54:51;;;;;;;2.53;1.60;;;18.20;19.50;;;;;;5034377;28;20030;-78
2023/07/20 01:57:17;;;;;;;3.63;1.92;;;18.10;38.70;;;;;;5033556;28;20041;-74
2023/07/20 01:59:43;;;;;;;6.72;1.35;;;18.00;55.00;;;;;;5050276;28;20053;-75
2023/07/20 02:02:09;;;;;;;4.05;1.70;;;18.00;64.70;;;;;;5034321;28;20136;-74
2023/07/20 02:04:35;;;;;;;4.00;1.63;;;18.10;55.10;;;;;;5032638;28;20025;-74
2023/07/20 02:07:02;;;;;;;3.53;1.90;;;18.00;66.30;;;;;;5030729;28;20036;-75
2023/07/20 02:09:28;;;;;;;3.75;1.90;;;18.00;56.30;;;;;;5034825;28;20192;-74
2023/07/20 02:11:54;;;;;;;5.70;1.83;;;18.00;55.20;;;;;;5050520;28;20052;-75
2023/07/20 02:14:22;;;;;;;2.85;1.40;;;17.90;56.10;;;;;;5034090;28;20033;-73
2023/07/20 02:16:52;;;;;;;4.68;1.70;;;17.80;68.40;;;;;;5030833;28;20025;-73
2023/07/20 02:19:21;;;;;;;2.55;1.30;;;17.60;90.50;;;;;;5051092;28;20048;-74
2023/07/20 02:21:47;;;;;;;18.95;3.35;;;17.50;98.00;;;;;;5029821;28;20060;-75
2023/07/20 02:24:13;;;;;;;174.63;28.50;;;17.40;99.90;;;;;;5029085;28;20036;-74
2023/07/20 02:26:42;;;;;;;169.35;23.73;;;17.40;99.90;;;;;;5032416;28;20029;-74
2023/07/20 02:29:11;;;;;;;118.72;26.00;;;17.30;99.90;;;;;;5027689;28;20917;-73
2023/07/20 02:31:39;;;;;;;398.80;57.15;;;17.30;99.90;;;;;;5023074;28;20029;-73
2023/07/20 02:34:06;;;;;;;88.82;13.18;;;17.20;99.90;;;;;;5038086;28;20052;-78
2023/07/20 02:36:32;;;;;;;3.65;2.28;;;17.20;99.90;;;;;;5048039;28;20071;-78
2023/07/20 02:38:59;;;;;;;145.02;26.60;;;17.00;99.90;;;;;;5023775;28;20460;-74
2023/07/20 02:41:25;;;;;;;2.83;1.92;;;16.90;99.90;;;;;;5027340;28;20128;-74
2023/07/20 02:43:51;;;;;;;53.55;8.63;;;16.80;99.90;;;;;;5028408;28;20064;-80
2023/07/20 02:46:17;;;;;;;67.55;9.82;;;16.70;99.90;;;;;;5030004;28;20034;-74
2023/07/20 02:48:43;;;;;;;3.80;2.15;;;16.60;99.90;;;;;;5031743;28;20033;-73
2023/07/20 02:51:11;;;;;;;551.67;101.97;;;16.50;99.90;;;;;;5034191;28;20041;-75
2023/07/20 02:53:37;;;;;;;51.40;6.97;;;16.40;99.90;;;;;;5033341;28;20041;-75
2023/07/20 02:56:03;;;;;;;73.78;13.10;;;16.40;99.90;;;;;;5027369;28;20052;-80
2023/07/20 02:58:30;;;;;;;5.00;3.47;;;16.20;99.90;;;;;;5025605;28;20060;-74
2023/07/20 03:00:56;;;;;;;106.93;17.92;;;16.20;99.90;;;;;;5027511;28;20073;-76
2023/07/20 03:03:22;;;;;;;334.20;52.25;;;16.10;99.90;;;;;;5037675;28;20037;-73
2023/07/20 03:05:54;;;;;;;348.63;50.70;;;16.10;99.90;;;;;;5033062;28;20046;-73
2023/07/20 03:08:20;;;;;;;324.63;55.67;;;16.00;99.90;;;;;;5036916;28;20041;-74
2023/07/20 03:10:46;;;;;;;3.17;1.75;;;15.90;99.90;;;;;;5036097;28;20041;-74
2023/07/20 03:13:14;;;;;;;3.92;2.08;;;15.80;99.90;;;;;;5035166;28;20021;-74
2023/07/20 03:15:40;;;;;;;4.47;1.80;;;15.70;99.90;;;;;;5051259;28;20037;-73
2023/07/20 03:18:06;;;;;;;2.88;1.85;;;15.70;99.90;;;;;;5033324;28;20053;-74
2023/07/20 03:20:34;;;;;;;3.40;1.75;;;15.50;99.90;;;;;;5047856;28;20616;-74
2023/07/20 03:23:01;;;;;;;2.88;1.77;;;15.50;99.90;;;;;;5036443;28;20033;-75
2023/07/20 03:25:27;;;;;;;3.95;2.50;;;15.50;99.90;;;;;;5039613;28;20043;-74
2023/07/20 03:27:53;;;;;;;4.38;1.85;;;15.60;99.90;;;;;;5034379;28;20053;-79
2023/07/20 03:30:20;;;;;;;5.00;2.22;;;15.60;99.90;;;;;;5018932;28;20133;-77
2023/07/20 03:32:46;;;;;;;5.18;2.38;;;15.60;99.90;;;;;;5034929;28;20490;-74
2023/07/20 03:35:12;;;;;;;3.38;2.10;;;15.40;99.90;;;;;;5033696;28;20034;-74
2023/07/20 03:37:39;;;;;;;4.00;1.95;;;15.40;99.90;;;;;;5033851;28;20497;-75
2023/07/20 03:40:07;;;;;;;5.43;2.67;;;15.30;99.90;;;;;;5030734;28;20064;-74
2023/07/20 03:42:33;;;;;;;6.03;2.35;;;15.30;99.90;;;;;;5035535;28;20045;-75
2023/07/20 03:44:59;;;;;;;4.63;2.30;;;15.20;99.90;;;;;;5037588;28;20034;-75
2023/07/20 03:47:26;;;;;;;4.00;2.28;;;15.20;99.90;;;;;;5050102;28;20048;-74
2023/07/20 03:49:52;;;;;;;6.70;2.15;;;15.20;99.90;;;;;;5037323;28;20109;-74
2023/07/20 03:52:18;;;;;;;4.22;1.75;;;15.20;99.90;;;;;;5032010;28;20371;-75
2023/07/20 03:54:45;;;;;;;4.53;2.13;;;15.20;99.90;;;;;;5053366;28;20059;-74
2023/07/20 03:57:11;;;;;;;5.03;2.08;;;15.20;99.90;;;;;;5033143;28;20510;-74
2023/07/20 03:59:38;;;;;;;4.88;1.85;;;15.50;99.90;;;;;;5051347;28;20053;-73
2023/07/20 04:02:05;;;;;;;8.43;2.78;;;15.70;99.90;;;;;;5037260;28;20052;-75
2023/07/20 04:04:31;;;;;;;2.72;1.88;;;16.00;99.90;;;;;;5036633;28;20037;-76
2023/07/20 04:06:57;;;;;;;5.55;1.98;;;16.20;99.90;;;;;;5035456;28;20033;-77
2023/07/20 04:09:23;;;;;;;4.03;2.08;;;16.40;99.90;;;;;;5031775;28;20029;-75
2023/07/20 04:11:50;;;;;;;4.47;1.83;;;16.40;99.90;;;;;;5024951;28;20400;-74
2023/07/20 04:14:16;;;;;;;4.13;1.75;;;16.40;99.90;;;;;;5047154;28;20037;-74
2023/07/20 04:16:42;;;;;;;5.95;2.10;;;16.40;99.90;;;;;;5037167;28;20383;-74
2023/07/20 04:19:09;;;;;;;8.20;2.83;;;16.40;99.90;;;;;;5033470;28;20044;-74
2023/07/20 04:21:41;;;;;;;3.80;2.10;;;16.40;99.90;;;;;;5035191;28;20387;-82
2023/07/20 04:24:07;;;;;;;3.75;2.03;;;16.40;99.90;;;;;;5048622;28;20052;-82
2023/07/20 04:26:33;;;;;;;4.20;2.03;;;16.50;99.90;;;;;;5034889;28;20109;-82
2023/07/20 04:29:00;;;;;;;4.10;2.13;;;16.50;99.90;;;;;;5034048;28;20044;-83
2023/07/20 04:31:35;;;;;;;3.55;1.63;;;16.70;99.90;;;;;;5031999;28;20049;-82
2023/07/20 04:34:03;;;;;;;4.25;1.90;;;16.80;99.90;;;;;;5034039;28;20048;-83
2023/07/20 04:36:29;;;;;;;5.22;2.67;;;16.80;99.90;;;;;;5049891;28;20046;-83
2023/07/20 04:38:56;;;;;;;3.25;1.63;;;16.90;99.90;;;;;;5049845;28;20044;-86
2023/07/20 04:41:24;;;;;;;6.80;1.85;;;16.80;99.90;;;;;;5042212;28;20042;-82
2023/07/20 04:43:52;;;;;;;4.63;2.65;;;16.70;99.90;;;;;;5024617;28;20033;-83
2023/07/20 04:46:25;;;;;;;3.78;1.85;;;16.60;99.90;;;;;;5019679;28;20140;-82
2023/07/20 04:48:51;;;;;;;4.43;2.00;;;16.60;99.90;;;;;;5044163;28;20057;-82
2023/07/20 04:51:20;;;;;;;3.30;1.77;;;16.60;99.90;;;;;;5028955;28;20207;-80
2023/07/20 04:53:48;;;;;;;3.78;1.88;;;16.60;99.90;;;;;;5038059;28;20389;-83
2023/07/20 04:56:15;;;;;;;4.45;2.08;;;16.60;99.90;;;;;;5050244;28;20367;-82
2023/07/20 04:58:42;;;;;;;4.05;2.13;;;16.50;99.90;;;;;;5028200;28;20054;-80
2023/07/20 05:01:08;;;;;;;4.90;1.75;;;16.50;99.90;;;;;;5047818;28;20041;-82
2023/07/20 05:03:36;;;;;;;6.43;2.28;;;16.40;99.90;;;;;;5034378;28;20056;-83
2023/07/20 05:06:02;;;;;;;4.60;2.10;;;16.40;99.90;;;;;;5030882;28;20048;-82
2023/07/20 05:08:28;;;;;;;4.00;1.80;;;16.40;99.90;;;;;;5038789;28;20471;-82
2023/07/20 05:10:55;;;;;;;4.70;1.88;;;16.40;99.90;;;;;;5030286;28;20041;-83
2023/07/20 05:13:21;;;;;;;3.45;1.92;;;16.40;99.90;;;;;;5050685;28;20041;-80
2023/07/20 05:15:52;;;;;;;3.60;2.10;;;16.50;99.90;;;;;;5053317;28;20045;-83
2023/07/20 05:18:20;;;;;;;2.92;1.50;;;16.60;99.90;;;;;;5038415;28;20628;-82
2023/07/20 05:20:47;;;;;;;3.97;1.85;;;16.80;99.90;;;;;;5042583;28;20045;-82
2023/07/20 05:23:17;;;;;;;5.20;2.28;;;17.00;99.90;;;;;;5030127;28;20691;-83
2023/07/20 05:25:44;;;;;;;6.57;2.28;;;17.00;99.90;;;;;;5036360;28;20466;-80
2023/07/20 05:28:10;;;;;;;7.15;2.65;;;17.10;99.90;;;;;;5033275;28;20037;-80
2023/07/20 05:30:36;;;;;;;6.75;2.33;;;17.20;99.90;;;;;;5037395;28;20482;-81
2023/07/20 05:33:02;;;;;;;5.75;1.90;;;17.30;99.90;;;;;;5041141;28;20034;-84
2023/07/20 05:35:29;;;;;;;4.78;2.70;;;17.40;99.90;;;;;;5050267;28;20060;-82
2023/07/20 05:37:55;;;;;;;4.22;2.42;;;17.60;99.90;;;;;;5030550;28;20034;-83
2023/07/20 05:40:21;;;;;;;5.90;2.28;;;17.60;99.90;;;;;;5029219;28;20034;-82
2023/07/20 05:42:48;;;;;;;9.30;2.63;;;17.70;99.90;;;;;;5026974;28;20049;-81
2023/07/20 05:45:15;;;;;;;4.72;1.98;;;17.80;99.90;;;;;;5043501;28;20034;-82
2023/07/20 05:47:42;;;;;;;5.32;2.08;;;17.90;99.90;;;;;;5036975;28;20033;-82
2023/07/20 05:50:09;;;;;;;8.65;2.83;;;18.00;99.90;;;;;;5035789;28;20040;-82
2023/07/20 05:52:35;;;;;;;13.05;2.70;;;18.20;99.90;;;;;;5057579;28;20056;-83
2023/07/20 05:55:01;;;;;;;9.10;2.55;;;18.30;99.90;;;;;;5034890;28;20041;-83
2023/07/20 05:57:27;;;;;;;8.45;2.53;;;18.40;99.90;;;;;;5035966;28;20052;-82
2023/07/20 05:59:54;;;;;;;5.68;1.70;;;18.50;99.90;;;;;;5029019;28;20054;-86
2023/07/20 06:02:20;;;;;;;10.48;2.20;;;18.70;99.90;;;;;;5042776;28;20128;-81
2023/07/20 06:04:47;;;;;;;410.02;96.85;;;18.90;99.90;;;;;;5038634;28;20118;-81
2023/07/20 06:07:13;;;;;;;1999.90;999.90;;;19.00;99.90;;;;;;5034946;28;20036;-82
2023/07/20 06:09:40;;;;;;;53.80;43.40;;;19.10;99.90;;;;;;5039351;28;20041;-84
2023/07/20 06:12:07;;;;;;;3.75;2.30;;;19.30;99.90;;;;;;5036011;28;20033;-83
2023/07/20 06:14:33;;;;;;;6.35;1.98;;;19.40;73.90;;;;;;5037280;28;20477;-82
2023/07/20 06:16:59;;;;;;;8.13;2.00;;;19.40;76.00;;;;;;5036015;28;20044;-84
2023/07/20 06:19:25;;;;;;;3.60;1.80;;;20.10;87.60;;;;;;5036286;28;20052;-82
2023/07/20 06:21:51;;;;;;;6.80;2.30;;;21.00;10.30;;;;;;5031180;28;20037;-82
2023/07/20 06:24:18;;;;;;;3.78;2.05;;;21.70;1.00;;;;;;5035503;28;20046;-84
2023/07/20 06:26:44;;;;;;;320.88;38.95;;;22.30;1.00;;;;;;5034203;28;20421;-82
2023/07/20 06:29:10;;;;;;;5.97;1.65;;;22.70;1.00;;;;;;5033312;28;20025;-81
2023/07/20 06:31:37;;;;;;;4.75;2.05;;;22.90;1.00;;;;;;5033954;28;20108;-83
2023/07/20 06:34:03;;;;;;;5.60;1.63;;;22.90;99.90;;;;;;5030526;28;20045;-83
2023/07/20 06:36:30;;;;;;;3.97;1.77;;;23.20;1.00;;;;;;5036826;28;20040;-82
2023/07/20 06:38:56;;;;;;;2.30;1.30;;;23.70;99.90;;;;;;5037013;28;20383;-83
2023/07/20 06:41:22;;;;;;;6.15;2.10;;;23.60;99.90;;;;;;5036117;28;20040;-81
2023/07/20 06:43:49;;;;;;;6.47;2.10;;;22.90;99.90;;;;;;5038023;28;20037;-81
2023/07/20 06:46:15;;;;;;;3.95;1.73;;;22.20;1.00;;;;;;5037887;28;20037;-83
2023/07/20 06:48:41;;;;;;;7.78;2.38;;;21.90;1.00;;;;;;5032261;28;20056;-81
2023/07/20 06:51:08;;;;;;;9.15;2.05;;;22.30;1.00;;;;;;5032838;28;20387;-81
2023/07/20 06:53:34;;;;;;;4.65;1.67;;;22.40;1.00;;;;;;5037175;28;20029;-82
2023/07/20 06:56:00;;;;;;;3.05;1.70;;;22.60;99.90;;;;;;5033684;28;20034;-85
2023/07/20 06:58:26;;;;;;;5.15;1.67;;;23.20;99.90;;;;;;5039228;28;20045;-81
2023/07/20 07:00:52;;;;;;;3.80;1.65;;;23.80;99.90;;;;;;5025309;28;20046;-82
2023/07/20 07:03:19;;;;;;;7.43;2.05;;;23.60;99.90;;;;;;5025287;28;20034;-83
2023/07/20 07:05:45;;;;;;;6.05;1.77;;;24.00;99.90;;;;;;5041016;28;20053;-86
2023/07/20 07:08:12;;;;;;;5.35;1.58;;;23.90;99.90;;;;;;5028793;28;20045;-83
2023/07/20 07:10:39;;;;;;;4.05;1.67;;;23.20;99.90;;;;;;5039589;28;20052;-82
2023/07/20 07:13:05;;;;;;;4.55;1.88;;;23.20;99.90;;;;;;5033369;28;20030;-83
2023/07/20 07:15:32;;;;;;;3.88;1.50;;;22.40;99.90;;;;;;5032744;28;20151;-83
2023/07/20 07:17:59;;;;;;;4.63;1.83;;;21.80;99.90;;;;;;5043425;28;20443;-81
2023/07/20 07:20:26;;;;;;;27.88;2.75;;;21.40;1.00;;;;;;5036843;28;20034;-82
2023/07/20 07:22:52;;;;;;;3.90;1.40;;;20.90;1.00;;;;;;5040717;28;20029;-80
2023/07/20 07:25:19;;;;;;;97.93;14.32;;;20.80;1.00;;;;;;5036413;28;20029;-81
2023/07/20 07:27:47;;;;;;;5.53;0.80;;;20.60;1.00;;;;;;5034041;28;20042;-82
2023/07/20 07:30:14;;;;;;;2.80;0.80;;;20.40;1.00;;;;;;5032941;28;20029;-80
2023/07/20 07:32:41;;;;;;;2.47;1.02;;;20.40;1.00;;;;;;5039631;28;20037;-81
2023/07/20 07:35:07;;;;;;;2.67;0.82;;;20.40;1.00;;;;;;5041616;28;20037;-82
2023/07/20 07:37:33;;;;;;;1.83;0.85;;;20.40;1.00;;;;;;5030651;28;20025;-82
2023/07/20 07:39:59;;;;;;;4.63;0.80;;;20.40;1.00;;;;;;5033708;28;20041;-82
2023/07/20 07:42:25;;;;;;;141.45;18.95;;;20.50;1.00;;;;;;5031965;28;20478;-82
2023/07/20 07:44:52;;;;;;;2.53;1.15;;;21.00;1.00;;;;;;5031289;28;20036;-82
2023/07/20 07:47:18;;;;;;;2.50;1.10;;;21.70;1.00;;;;;;5034670;28;20033;-85
2023/07/20 07:49:44;;;;;;;3.72;1.50;;;22.20;99.90;;;;;;5038680;28;20047;-85
2023/07/20 07:52:10;;;;;;;3.75;1.23;;;22.30;99.90;;;;;;5032846;28;20049;-80
2023/07/20 07:54:36;;;;;;;3.80;1.00;;;22.20;99.90;;;;;;5035575;28;20037;-83
2023/07/20 07:57:03;;;;;;;1.77;1.10;;;21.70;99.90;;;;;;5050647;28;20037;-90
2023/07/20 07:59:31;;;;;;;3.80;1.35;;;21.20;1.00;;;;;;5037222;28;20052;-86
2023/07/20 08:01:58;;;;;;;2.60;0.80;;;21.00;1.00;;;;;;5042130;28;20045;-82
2023/07/20 08:04:24;;;;;;;2.65;1.23;;;20.70;1.00;;;;;;5051675;28;20037;-82
2023/07/20 08:06:50;;;;;;;3.47;1.20;;;20.50;1.00;;;;;;5035976;28;20389;-82
2023/07/20 08:09:16;;;;;;;3.03;1.20;;;20.70;1.00;;;;;;5037082;28;20038;-83
2023/07/20 08:11:43;;;;;;;3.47;1.52;;;21.40;1.00;;;;;;5037710;28;20025;-81
2023/07/20 08:14:09;;;;;;;6.00;1.45;;;22.10;1.00;;;;;;5033111;28;20030;-81
2023/07/20 08:16:35;;;;;;;4.13;1.58;;;22.30;99.90;;;;;;5038359;28;20374;-82
2023/07/20 08:19:02;;;;;;;3.92;1.10;;;22.60;99.90;;;;;;5034652;28;20037;-82
2023/07/20 08:21:28;;;;;;;2.50;1.02;;;23.00;99.90;;;;;;5035854;28;20430;-82
2023/07/20 08:23:54;;;;;;;2.85;1.27;;;23.00;99.90;;;;;;5036747;28;20357;-84
2023/07/20 08:26:22;;;;;;;2.00;0.82;;;22.80;99.90;;;;;;5038497;28;20036;-83
2023/07/20 08:28:48;;;;;;;2.47;0.70;;;22.30;99.90;;;;;;5036251;28;20078;-80
2023/07/20 08:31:14;;;;;;;1.52;0.90;;;22.60;99.90;;;;;;5034268;28;20044;-81
2023/07/20 08:33:40;;;;;;;2.33;0.90;;;23.10;99.90;;;;;;5033710;28;20040;-81
2023/07/20 08:36:07;;;;;;;3.10;1.10;;;23.20;99.90;;;;;;5037582;28;20090;-82
2023/07/20 08:38:33;;;;;;;3.30;1.45;;;22.70;99.90;;;;;;5037016;28;20395;-82
2023/07/20 08:41:01;;;;;;;1.80;0.80;;;22.80;99.90;;;;;;5034264;28;20488;-82
2023/07/20 08:43:28;;;;;;;2.42;1.00;;;23.80;99.90;;;;;;5035230;28;20036;-82
2023/07/20 08:45:58;;;;;;;2.78;0.93;;;24.20;99.90;;;;;;5037911;28;20034;-83
2023/07/20 08:48:24;;;;;;;;;;;23.90;99.90;;;;;;5052595;28;20052;-83
2023/07/20 08:50:53;;;;;;;167.40;24.88;;;23.40;99.90;;;;;;5031951;28;19916;-82
2023/07/20 08:53:20;;;;;;;3.58;1.48;;;23.70;99.90;;;;;;5050011;28;20470;-82
2023/07/20 08:55:49;;;;;;;2.03;1.00;;;23.50;99.90;;;;;;5036298;28;20386;-84
2023/07/20 08:58:18;;;;;;;2.22;1.13;;;23.30;99.90;;;;;;5035969;28;20037;-80
2023/07/20 09:00:44;;;;;;;3.00;1.75;;;23.10;99.90;;;;;;5036529;28;20080;-82
2023/07/20 09:03:11;;;;;;;4.10;1.30;;;22.80;99.90;;;;;;5032794;28;20490;-82
2023/07/20 09:05:39;;;;;;;3.65;1.48;;;22.60;99.90;;;;;;5035854;28;20363;-82
2023/07/20 09:08:07;;;;;;;4.20;2.08;;;22.50;99.90;;;;;;5037390;28;20028;-89
2023/07/20 09:10:33;;;;;;;1999.90;999.90;;;22.90;99.90;;;;;;5032711;28;20041;-84
2023/07/20 09:12:59;;;;;;;1999.90;999.90;;;23.60;99.90;;;;;;5035869;28;20044;-82
2023/07/20 09:15:26;;;;;;;1999.90;999.90;;;23.60;99.90;;;;;;5038076;28;20335;-86
2023/07/20 09:17:53;;;;;;;1999.90;999.90;;;22.90;99.90;;;;;;5034806;28;20041;-84
2023/07/20 09:20:20;;;;;;;1999.90;999.90;;;22.60;99.90;;;;;;5033994;28;20033;-82
2023/07/20 09:22:46;;;;;;;1999.90;999.90;;;22.50;99.90;;;;;;5033746;28;20482;-83
2023/07/20 09:25:15;;;;;;;1999.90;999.90;;;22.60;99.90;;;;;;5032584;28;20466;-83
2023/07/20 09:27:48;;;;;;;1999.90;999.90;;;22.80;99.90;;;;;;5037681;28;20041;-83
2023/07/20 09:30:16;;;;;;;1999.90;999.90;;;23.20;99.90;;;;;;5038795;28;20056;-83
2023/07/20 09:32:44;;;;;;;1999.90;999.90;;;23.60;99.90;;;;;;5033512;28;20038;-82
2023/07/20 09:35:21;;;;;;;1999.90;999.90;;;23.70;99.90;;;;;;5039881;28;20049;-82
2023/07/20 09:37:53;;;;;;;1999.90;999.90;;;24.10;99.90;;;;;;5045018;28;20029;-83
2023/07/20 09:40:20;;;;;;;1999.90;999.90;;;24.70;99.90;;;;;;5023480;28;20038;-82
2023/07/20 09:42:47;;;;;;;1999.90;999.90;;;24.70;99.90;;;;;;5022605;28;20033;-81
2023/07/20 09:45:14;;;;;;;1999.90;999.90;;;25.30;99.90;;;;;;5050960;28;20044;-83
2023/07/20 09:47:41;;;;;;;1999.90;999.90;;;23.90;99.90;;;;;;5032363;28;20526;-82
2023/07/20 09:50:11;;;;;;;1999.90;999.90;;;23.30;99.90;;;;;;5032378;28;20033;-86
2023/07/20 09:52:40;;;;;;;1999.90;999.90;;;22.90;99.90;;;;;;5034468;28;20052;-82
2023/07/20 09:55:08;;;;;;;1999.90;999.90;;;22.60;99.90;;;;;;5037971;28;20056;-81
2023/07/20 09:57:35;;;;;;;1999.90;999.90;;;22.40;99.90;;;;;;5033469;28;20037;-82
2023/07/20 10:00:11;;;;;;;1999.90;999.90;;;22.90;99.90;;;;;;5037781;28;20049;-83
2023/07/20 10:02:42;;;;;;;1999.90;999.90;;;23.30;99.90;;;;;;5026862;28;20058;-82
2023/07/20 10:05:10;;;;;;;1999.90;999.90;;;23.90;99.90;;;;;;5031056;28;20033;-87
2023/07/20 10:07:44;;;;;;;1999.90;999.90;;;24.20;99.90;;;;;;5036193;28;20033;-82
2023/07/20 10:10:10;;;;;;;1999.90;999.90;;;24.20;99.90;;;;;;5031595;28;20049;-82
2023/07/20 10:12:39;;;;;;;1999.90;999.90;;;24.30;99.90;;;;;;5033876;28;20037;-81
2023/07/20 10:15:21;;;;;;;1999.90;999.90;;;24.80;99.90;;;;;;5036357;28;20036;-82
2023/07/20 10:18:16;;;;;;;1999.90;999.90;;;24.70;99.90;;;;;;5035362;28;20033;-82
2023/07/20 10:20:42;;;;;;;1999.90;999.90;;;24.70;99.90;;;;;;5029860;28;20601;-83
2023/07/20 10:23:12;;;;;;;1999.90;999.90;;;25.10;99.90;;;;;;5039239;28;20053;-92
2023/07/20 10:25:41;;;;;;;;;;;25.40;99.90;;;;;;5030421;28;20451;-82
2023/07/20 10:28:07;;;;;;;1999.90;999.90;;;25.50;99.90;;;;;;5033500;28;19916;-84
2023/07/20 10:30:35;;;;;;;1999.90;999.90;;;25.60;99.90;;;;;;5031457;28;20045;-84
2023/07/20 10:33:05;;;;;;;1999.90;999.90;;;25.80;99.90;;;;;;5031610;28;20103;-82
2023/07/20 10:35:51;;;;;;;1999.90;999.90;;;25.50;99.90;;;;;;5037217;28;20458;-83
2023/07/20 10:38:17;;;;;;;1999.90;999.90;;;25.60;99.90;;;;;;5026031;28;20026;-82
2023/07/20 10:40:54;;;;;;;1999.90;999.90;;;26.00;99.90;;;;;;5033860;28;20041;-81
2023/07/20 10:43:21;;;;;;;1999.90;999.90;;;26.40;99.90;;;;;;5031340;28;20387;-82
2023/07/20 10:45:53;;;;;;;1999.90;999.90;;;26.40;99.90;;;;;;5034397;28;20049;-82
2023/07/20 10:48:24;;;;;;;1999.90;999.90;;;26.10;99.90;;;;;;5036734;28;20040;-82
2023/07/20 10:51:10;;;;;;;1999.90;999.90;;;25.60;99.90;;;;;;5034338;28;20038;-82
2023/07/20 10:53:36;;;;;;;1999.90;999.90;;;26.00;99.90;;;;;;5033932;28;20041;-82
2023/07/20 10:56:08;;;;;;;1999.90;999.90;;;26.60;99.90;;;;;;5032296;28;20033;-82
2023/07/20 10:58:35;;;;;;;1999.90;999.90;;;25.80;99.90;;;;;;5033977;28;20474;-83
2023/07/20 11:01:03;;;;;;;1999.90;999.90;;;25.20;99.90;;;;;;5029582;28;20050;-82
2023/07/20 11:03:33;;;;;;;1999.90;999.90;;;24.90;99.90;;;;;;5030718;28;20056;-81
2023/07/20 11:05:59;;;;;;;;;;;24.50;99.90;;;;;;5042089;28;20042;-82
2023/07/20 11:08:41;;;;;;;1999.90;999.90;;;24.70;99.90;;;;;;5047103;28;19912;-82
2023/07/20 11:11:29;;;;;;;1999.90;999.90;;;25.30;99.90;;;;;;5050788;28;20148;-81
2023/07/20 11:14:00;;;;;;;1999.90;999.90;;;25.30;99.90;;;;;;5045814;28;20041;-81
2023/07/20 11:16:44;;;;;;;1999.90;999.90;;;25.10;99.90;;;;;;5031900;28;20343;-84
2023/07/20 11:19:23;;;;;;;1999.90;999.90;;;25.40;99.90;;;;;;5036971;28;20041;-90
2023/07/20 11:21:51;;;;;;;1999.90;999.90;;;25.80;99.90;;;;;;5035695;28;20056;-82
2023/07/20 11:24:17;;;;;;;1999.90;999.90;;;26.30;99.90;;;;;;5036401;28;20034;-82
2023/07/20 11:26:49;;;;;;;1999.90;999.90;;;26.20;99.90;;;;;;5040271;28;20037;-82
2023/07/20 11:29:17;;;;;;;1999.90;999.90;;;26.20;99.90;;;;;;5034674;28;20047;-84
2023/07/20 11:31:44;;;;;;;1999.90;999.90;;;26.10;99.90;;;;;;5035854;28;20525;-84
2023/07/20 11:34:13;;;;;;;1999.90;999.90;;;25.40;99.90;;;;;;5037578;28;20033;-86
2023/07/20 11:36:50;;;;;;;1999.90;999.90;;;25.60;99.90;;;;;;5055005;28;20044;-82
2023/07/20 11:39:21;;;;;;;1999.90;999.90;;;25.90;99.90;;;;;;5035951;28;20044;-82
2023/07/20 11:41:49;;;;;;;82.97;79.90;;;25.50;99.90;;;;;;5040242;28;20107;-84
2023/07/20 11:44:26;;;;;;;46.25;43.80;;;26.10;99.90;;;;;;5032924;28;20037;-82
2023/07/20 11:47:04;;;;;;;1999.90;999.90;;;26.20;99.90;;;;;;5039805;28;20059;-82
2023/07/20 11:49:38;;;;;;;1999.90;999.90;;;26.50;99.90;;;;;;5039325;28;20241;-82
2023/07/20 11:52:06;;;;;;;1999.90;999.90;;;26.60;99.90;;;;;;5049859;28;20445;-82
2023/07/20 11:54:34;;;;;;;472.45;451.70;;;25.70;99.90;;;;;;5033718;28;20030;-83
2023/07/20 11:57:01;;;;;;;469.40;449.98;;;25.20;99.90;;;;;;5027602;28;20072;-82
2023/07/20 11:59:27;;;;;;;298.20;285.50;;;24.90;99.90;;;;;;5034812;28;20060;-82
2023/07/20 12:01:54;;;;;;;1999.90;999.90;;;24.80;99.90;;;;;;5031212;28;20109;-82
2023/07/20 12:04:22;;;;;;;1999.90;999.90;;;24.80;99.90;;;;;;5040205;28;20044;-82
2023/07/20 12:06:49;;;;;;;1999.90;999.90;;;24.60;99.90;;;;;;5032373;28;20033;-83
2023/07/20 12:09:16;;;;;;;1999.90;999.90;;;24.30;99.90;;;;;;5042573;28;20037;-84
2023/07/20 12:11:47;;;;;;;1999.90;999.90;;;24.50;99.90;;;;;;5040596;28;20033;-86
2023/07/20 12:14:13;;;;;;;1999.90;999.90;;;24.50;99.90;;;;;;5037678;28;20037;-81
2023/07/20 12:16:39;;;;;;;1999.90;999.90;;;24.70;99.90;;;;;;5043577;28;20037;-80
2023/07/20 12:19:07;;;;;;;1999.90;999.90;;;24.90;99.90;;;;;;5051799;28;20038;-80
2023/07/20 12:21:36;;;;;;;1999.90;999.90;;;25.00;99.90;;;;;;5047076;28;20411;-83
2023/07/20 12:24:03;;;;;;;1999.90;999.90;;;24.90;99.90;;;;;;5046750;28;20505;-86
2023/07/20 12:26:31;;;;;;;1999.90;999.90;;;24.60;99.90;;;;;;5045812;28;20036;-81
2023/07/20 12:28:58;;;;;;;1999.90;999.90;;;24.60;99.90;;;;;;5033993;28;20041;-83
2023/07/20 12:31:25;;;;;;;1999.90;999.90;;;24.90;99.90;;;;;;5032585;28;20447;-81
2023/07/20 12:33:52;;;;;;;1999.90;999.90;;;24.80;99.90;;;;;;5035868;28;20390;-86
2023/07/20 12:36:19;;;;;;;1999.90;999.90;;;24.60;99.90;;;;;;5034222;28;20506;-80
2023/07/20 12:38:45;;;;;;;1999.90;999.90;;;24.50;99.90;;;;;;5054519;28;20041;-81